createdAt,value
2023-05-22T00:01:56.813Z,9.15
2023-05-22T00:04:23.754Z,8.57
2023-05-22T00:06:50.634Z,9.25
2023-05-22T00:09:17.757Z,6.57
2023-05-22T00:11:44.573Z,7.82
2023-05-22T00:14:13.440Z,7.90
2023-05-22T00:16:40.355Z,9.70
2023-05-22T00:19:13.323Z,8.70
2023-05-22T00:21:40.419Z,8.95
2023-05-22T00:24:07.499Z,11.32
2023-05-22T00:26:34.293Z,6.80
2023-05-22T00:29:01.444Z,8.50
2023-05-22T00:31:28.710Z,12.88
2023-05-22T00:33:55.535Z,7.57
2023-05-22T00:36:22.417Z,7.35
2023-05-22T00:38:49.104Z,5.55
2023-05-22T00:41:15.853Z,7.03
2023-05-22T00:43:42.849Z,6.55
2023-05-22T00:46:10.097Z,9.00
2023-05-22T00:48:36.830Z,6.35
2023-05-22T00:51:04.022Z,6.53
2023-05-22T00:53:31.763Z,8.95
2023-05-22T00:55:59.851Z,6.75
2023-05-22T00:58:27.240Z,6.45
2023-05-22T01:00:55.502Z,8.60
2023-05-22T01:05:55.006Z,8.20
2023-05-22T01:08:22.714Z,8.07
2023-05-22T01:10:56.164Z,8.25
2023-05-22T01:13:25.716Z,8.48
2023-05-22T01:16:08.669Z,8.65
2023-05-22T01:18:45.230Z,8.32
2023-05-22T01:21:12.167Z,8.55
2023-05-22T01:24:16.202Z,7.82
2023-05-22T01:27:20.479Z,7.88
2023-05-22T01:29:56.068Z,8.00
2023-05-22T01:32:25.853Z,10.30
2023-05-22T01:34:57.001Z,8.25
2023-05-22T01:37:24.773Z,7.75
2023-05-22T01:39:52.526Z,10.35
2023-05-22T01:42:19.700Z,9.20
2023-05-22T01:44:49.024Z,7.72
2023-05-22T01:47:16.362Z,7.43
2023-05-22T01:49:43.408Z,11.40
2023-05-22T01:52:24.103Z,7.28
2023-05-22T01:55:03.682Z,8.95
2023-05-22T01:57:38.952Z,11.00
2023-05-22T02:00:10.124Z,8.70
2023-05-22T02:02:48.597Z,9.45
2023-05-22T02:05:18.903Z,8.43
2023-05-22T02:07:47.654Z,8.45
2023-05-22T02:10:17.129Z,8.38
2023-05-22T02:12:44.892Z,8.00
2023-05-22T02:15:12.060Z,9.43
2023-05-22T02:17:42.629Z,8.80
2023-05-22T02:20:17.242Z,7.28
2023-05-22T02:22:46.319Z,9.07
2023-05-22T02:25:17.720Z,8.27
2023-05-22T02:27:47.029Z,9.63
2023-05-22T02:32:42.381Z,7.43
2023-05-22T02:35:12.268Z,9.30
2023-05-22T02:37:39.070Z,8.65
2023-05-22T02:40:07.465Z,7.00
2023-05-22T02:42:34.820Z,9.32
2023-05-22T02:45:02.827Z,12.27
2023-05-22T02:47:29.931Z,8.40
2023-05-22T02:49:58.088Z,9.48
2023-05-22T02:52:25.163Z,8.40
2023-05-22T02:54:52.084Z,9.43
2023-05-22T02:57:20.047Z,9.15
2023-05-22T02:59:46.820Z,7.68
2023-05-22T03:02:15.504Z,10.88
2023-05-22T03:07:10.492Z,11.18
2023-05-22T03:09:37.382Z,10.70
2023-05-22T03:12:07.993Z,12.73
2023-05-22T03:14:35.274Z,9.73
2023-05-22T03:17:02.269Z,6.97
2023-05-22T03:19:29.891Z,10.15
2023-05-22T03:21:56.619Z,10.07
2023-05-22T03:24:23.442Z,8.27
2023-05-22T03:26:50.306Z,10.27
2023-05-22T03:29:24.051Z,8.43
2023-05-22T03:31:50.850Z,8.40
2023-05-22T03:34:17.549Z,8.48
2023-05-22T03:36:46.899Z,8.82
2023-05-22T03:39:15.767Z,9.75
2023-05-22T03:41:51.133Z,11.75
2023-05-22T03:44:18.342Z,8.93
2023-05-22T03:46:46.462Z,10.02
2023-05-22T03:49:13.178Z,10.88
2023-05-22T03:51:39.933Z,10.95
2023-05-22T03:54:06.749Z,13.63
2023-05-22T03:56:33.480Z,9.30
2023-05-22T03:59:00.590Z,8.48
2023-05-22T04:01:27.359Z,10.80
2023-05-22T04:03:54.192Z,11.88
2023-05-22T04:06:23.573Z,9.88
2023-05-22T04:08:50.275Z,11.55
2023-05-22T04:11:17.017Z,9.48
2023-05-22T04:13:43.748Z,11.55
2023-05-22T04:16:10.716Z,11.90
2023-05-22T04:18:37.836Z,10.48
2023-05-22T04:21:08.146Z,11.68
2023-05-22T04:23:38.717Z,14.25
2023-05-22T04:26:08.909Z,10.57
2023-05-22T04:28:36.089Z,11.30
2023-05-22T04:31:06.566Z,9.10
2023-05-22T04:33:34.612Z,11.27
2023-05-22T04:36:02.450Z,11.00
2023-05-22T04:38:29.418Z,9.43
2023-05-22T04:40:57.072Z,10.93
2023-05-22T04:43:26.726Z,10.45
2023-05-22T04:45:54.848Z,10.25
2023-05-22T04:50:54.299Z,10.82
2023-05-22T04:53:21.224Z,8.40
2023-05-22T04:55:47.922Z,9.38
2023-05-22T04:58:15.261Z,9.25
2023-05-22T05:00:42.337Z,7.80
2023-05-22T05:03:11.749Z,13.13
2023-05-22T05:05:41.123Z,12.52
2023-05-22T05:08:08.175Z,13.57
2023-05-22T05:10:34.900Z,10.45
2023-05-22T05:13:02.316Z,12.15
2023-05-22T05:15:29.608Z,9.63
2023-05-22T05:17:56.541Z,9.88
2023-05-22T05:20:23.463Z,10.57
2023-05-22T05:22:51.108Z,10.30
2023-05-22T05:25:18.004Z,11.80
2023-05-22T05:27:45.052Z,8.93
2023-05-22T05:30:12.290Z,10.77
2023-05-22T05:33:06.487Z,10.90
2023-05-22T05:35:56.308Z,10.95
2023-05-22T05:38:24.920Z,9.38
2023-05-22T05:40:52.827Z,9.77
2023-05-22T05:43:20.762Z,9.35
2023-05-22T05:45:49.491Z,8.73
2023-05-22T05:48:16.817Z,9.35
2023-05-22T05:50:45.774Z,10.98
2023-05-22T05:53:12.816Z,8.88
2023-05-22T05:55:44.116Z,9.40
2023-05-22T05:58:11.096Z,9.05
2023-05-22T06:00:48.047Z,9.88
2023-05-22T06:03:14.928Z,9.15
2023-05-22T06:06:11.152Z,9.05
2023-05-22T06:08:57.203Z,9.02
2023-05-22T06:11:30.225Z,10.52
2023-05-22T06:13:57.195Z,8.38
2023-05-22T06:16:24.282Z,10.52
2023-05-22T06:18:52.691Z,14.07
2023-05-22T06:21:22.831Z,15.40
2023-05-22T06:23:49.901Z,12.35
2023-05-22T06:26:17.640Z,12.13
2023-05-22T06:28:45.692Z,12.23
2023-05-22T06:31:12.776Z,16.08
2023-05-22T06:33:43.643Z,13.50
2023-05-22T06:36:11.515Z,15.40
2023-05-22T06:38:39.500Z,13.35
2023-05-22T06:41:13.476Z,13.15
2023-05-22T06:43:40.307Z,12.88
2023-05-22T06:46:12.352Z,12.32
2023-05-22T06:48:50.219Z,12.23
2023-05-22T06:51:24.340Z,13.18
2023-05-22T06:53:54.543Z,12.63
2023-05-22T06:56:25.408Z,11.63
2023-05-22T06:58:59.252Z,13.85
2023-05-22T07:01:46.600Z,8.95
2023-05-22T07:04:17.428Z,11.30
2023-05-22T07:06:54.640Z,13.00
2023-05-22T07:09:21.733Z,12.00
2023-05-22T07:11:49.120Z,14.35
2023-05-22T07:14:18.257Z,13.40
2023-05-22T07:16:46.230Z,12.60
2023-05-22T07:19:16.775Z,12.75
2023-05-22T07:21:43.597Z,12.75
2023-05-22T07:24:11.927Z,13.43
2023-05-22T07:26:46.410Z,15.13
2023-05-22T07:29:17.024Z,15.80
2023-05-22T07:31:47.476Z,13.70
2023-05-22T07:34:14.527Z,15.32
2023-05-22T07:36:42.123Z,15.00
2023-05-22T07:39:09.997Z,15.85
2023-05-22T07:41:40.184Z,14.40
2023-05-22T07:44:09.280Z,15.20
2023-05-22T07:46:38.261Z,15.00
2023-05-22T07:49:20.435Z,14.07
2023-05-22T07:51:47.911Z,15.20
2023-05-22T07:54:16.304Z,14.73
2023-05-22T07:56:45.994Z,13.73
2023-05-22T07:59:14.778Z,13.70
2023-05-22T08:01:44.619Z,11.93
2023-05-22T08:04:11.590Z,10.32
2023-05-22T08:06:39.973Z,13.20
2023-05-22T08:09:06.756Z,12.43
2023-05-22T08:11:34.350Z,13.88
2023-05-22T08:14:01.120Z,14.25
2023-05-22T08:16:27.862Z,14.48
2023-05-22T08:18:54.619Z,12.80
2023-05-22T08:21:21.365Z,12.63
2023-05-22T08:23:48.046Z,11.70
2023-05-22T08:26:15.168Z,10.45
2023-05-22T08:28:44.865Z,9.35
2023-05-22T08:31:12.223Z,11.55
2023-05-22T08:33:39.846Z,12.88
2023-05-22T08:36:06.776Z,10.68
2023-05-22T08:38:33.668Z,12.10
2023-05-22T08:41:00.407Z,11.02
2023-05-22T08:43:28.675Z,13.35
2023-05-22T08:46:06.054Z,13.50
2023-05-22T08:48:33.770Z,11.02
2023-05-22T08:51:05.941Z,13.70
2023-05-22T08:53:37.535Z,10.98
2023-05-22T08:56:08.632Z,12.02
2023-05-22T08:58:36.839Z,12.63
2023-05-22T09:01:05.548Z,10.57
2023-05-22T09:03:33.195Z,10.60
2023-05-22T09:06:01.202Z,11.77
2023-05-22T09:08:31.380Z,12.55
2023-05-22T09:10:58.541Z,12.27
2023-05-22T09:13:28.425Z,10.40
2023-05-22T09:15:59.618Z,9.32
2023-05-22T09:18:30.252Z,9.93
2023-05-22T09:20:58.086Z,9.18
2023-05-22T09:23:28.345Z,8.73
2023-05-22T09:25:57.160Z,11.70
2023-05-22T09:28:24.735Z,8.30
2023-05-22T09:30:55.594Z,7.45
2023-05-22T09:33:23.438Z,8.75
2023-05-22T09:35:53.966Z,9.30
2023-05-22T09:38:28.493Z,8.00
2023-05-22T09:40:56.053Z,6.85
2023-05-22T09:43:25.455Z,9.07
2023-05-22T09:46:02.495Z,8.57
2023-05-22T09:48:29.365Z,13.27
2023-05-22T09:50:59.865Z,7.38
2023-05-22T09:53:29.058Z,6.90
2023-05-22T09:56:00.396Z,10.43
2023-05-22T09:58:31.077Z,7.60
2023-05-22T10:00:59.297Z,8.77
2023-05-22T10:03:27.203Z,5.80
2023-05-22T10:05:56.844Z,5.82
2023-05-22T10:08:27.697Z,6.10
2023-05-22T10:10:55.081Z,6.15
2023-05-22T10:13:22.122Z,8.38
2023-05-22T10:15:50.560Z,6.88
2023-05-22T10:18:17.722Z,7.47
2023-05-22T10:20:47.098Z,6.25
2023-05-22T10:23:16.646Z,7.55
2023-05-22T10:25:44.727Z,8.75
2023-05-22T10:28:16.482Z,6.72
2023-05-22T10:31:03.604Z,6.20
2023-05-22T10:34:01.081Z,7.38
2023-05-22T10:36:50.901Z,6.35
2023-05-22T10:39:26.347Z,6.10
2023-05-22T10:41:53.800Z,5.78
2023-05-22T10:44:22.445Z,7.20
2023-05-22T10:46:52.674Z,5.10
2023-05-22T10:49:26.784Z,7.72
2023-05-22T10:51:57.217Z,7.60
2023-05-22T10:54:43.237Z,6.85
2023-05-22T10:57:13.753Z,7.35
2023-05-22T10:59:40.604Z,7.72
2023-05-22T11:02:22.676Z,5.90
2023-05-22T11:04:49.714Z,10.93
2023-05-22T11:07:16.629Z,6.88
2023-05-22T11:09:49.848Z,6.35
2023-05-22T11:12:16.901Z,5.88
2023-05-22T11:14:51.989Z,6.13
2023-05-22T11:17:43.103Z,8.93
2023-05-22T11:22:46.690Z,6.13
2023-05-22T11:25:18.510Z,5.57
2023-05-22T11:27:47.449Z,6.60
2023-05-22T11:30:15.732Z,5.05
2023-05-22T11:32:45.148Z,5.88
2023-05-22T11:35:19.466Z,7.75
2023-05-22T11:37:47.509Z,6.95
2023-05-22T11:40:16.964Z,4.72
2023-05-22T11:42:44.318Z,6.35
2023-05-22T11:45:11.713Z,6.72
2023-05-22T11:47:39.228Z,8.23
2023-05-22T11:50:09.067Z,8.45
2023-05-22T11:52:37.322Z,6.53
2023-05-22T11:55:05.633Z,5.50
2023-05-22T11:57:32.794Z,7.00
2023-05-22T11:59:59.656Z,6.95
2023-05-22T12:02:26.905Z,6.03
2023-05-22T12:04:55.656Z,6.30
2023-05-22T12:07:23.002Z,6.35
2023-05-22T12:09:50.102Z,7.50
2023-05-22T12:12:16.892Z,6.60
2023-05-22T12:14:47.375Z,5.25
2023-05-22T12:17:15.084Z,5.40
2023-05-22T12:19:43.161Z,5.60
2023-05-22T12:22:10.467Z,7.13
2023-05-22T12:24:41.018Z,5.95
2023-05-22T12:27:10.498Z,5.90
2023-05-22T12:29:38.372Z,7.15
2023-05-22T12:32:11.602Z,6.00
2023-05-22T12:34:46.445Z,5.30
2023-05-22T12:37:25.075Z,5.78
2023-05-22T12:39:59.089Z,6.15
2023-05-22T12:42:26.482Z,5.35
2023-05-22T12:44:55.035Z,6.70
2023-05-22T12:47:23.548Z,6.05
2023-05-22T12:49:51.087Z,5.55
2023-05-22T12:52:18.230Z,5.68
2023-05-22T12:54:45.055Z,5.63
2023-05-22T12:57:12.478Z,7.28
2023-05-22T12:59:39.306Z,6.70
2023-05-22T13:02:06.518Z,6.75
2023-05-22T13:04:33.329Z,6.57
2023-05-22T13:07:00.235Z,6.32
2023-05-22T13:09:27.079Z,7.65
2023-05-22T13:11:53.893Z,6.35
2023-05-22T13:14:20.635Z,5.00
2023-05-22T13:16:47.428Z,6.05
2023-05-22T13:19:14.217Z,5.07
2023-05-22T13:21:41.052Z,7.20
2023-05-22T13:24:08.525Z,6.50
2023-05-22T13:26:35.313Z,5.57
2023-05-22T13:29:01.990Z,6.25
2023-05-22T13:31:29.032Z,4.63
2023-05-22T13:33:55.980Z,6.47
2023-05-22T13:36:22.804Z,6.80
2023-05-22T13:38:49.646Z,8.10
2023-05-22T13:41:17.848Z,5.85
2023-05-22T13:43:44.744Z,14.18
2023-05-22T13:46:11.621Z,8.00
2023-05-22T13:48:39.074Z,6.57
2023-05-22T13:51:06.480Z,5.25
2023-05-22T13:53:33.322Z,4.95
2023-05-22T13:56:00.017Z,4.82
2023-05-22T13:58:26.883Z,5.95
2023-05-22T14:00:53.821Z,5.63
2023-05-22T14:03:20.744Z,6.65
2023-05-22T14:05:48.575Z,10.55
2023-05-22T14:10:42.144Z,6.13
2023-05-22T14:13:09.174Z,5.93
2023-05-22T14:15:36.010Z,5.85
2023-05-22T14:18:02.818Z,6.25
2023-05-22T14:20:29.600Z,4.15
2023-05-22T14:22:58.399Z,5.10
2023-05-22T14:25:28.349Z,6.53
2023-05-22T14:27:55.173Z,6.22
2023-05-22T14:30:22.159Z,6.35
2023-05-22T14:32:49.145Z,6.32
2023-05-22T14:35:16.776Z,7.57
2023-05-22T14:37:44.078Z,6.40
2023-05-22T14:40:10.990Z,5.95
2023-05-22T14:42:38.026Z,9.57
2023-05-22T14:45:05.430Z,8.32
2023-05-22T14:47:32.302Z,9.75
2023-05-22T14:50:14.136Z,5.43
2023-05-22T14:52:44.992Z,5.50
2023-05-22T14:55:11.684Z,6.13
2023-05-22T14:57:38.355Z,6.00
2023-05-22T15:00:09.804Z,8.20
2023-05-22T15:02:37.856Z,7.30
2023-05-22T15:05:05.530Z,7.55
2023-05-22T15:07:43.297Z,9.05
2023-05-22T15:10:12.205Z,7.55
2023-05-22T15:12:38.982Z,6.28
2023-05-22T15:15:06.236Z,5.82
2023-05-22T15:17:33.056Z,6.75
2023-05-22T15:19:59.855Z,6.05
2023-05-22T15:22:26.493Z,10.18
2023-05-22T15:25:20.031Z,7.50
2023-05-22T15:27:46.815Z,5.88
2023-05-22T15:30:15.036Z,4.57
2023-05-22T15:32:41.797Z,6.13
2023-05-22T15:35:09.403Z,5.43
2023-05-22T15:37:36.757Z,6.43
2023-05-22T15:40:04.525Z,6.00
2023-05-22T15:44:59.929Z,5.00
2023-05-22T15:47:26.774Z,6.70
2023-05-22T15:49:53.524Z,6.63
2023-05-22T15:52:22.683Z,5.95
2023-05-22T15:54:49.475Z,4.90
2023-05-22T15:57:16.616Z,5.32
2023-05-22T15:59:43.463Z,6.80
2023-05-22T16:02:10.173Z,6.35
2023-05-22T16:04:36.980Z,6.72
2023-05-22T16:07:03.905Z,7.68
2023-05-22T16:09:32.676Z,6.88
2023-05-22T16:11:59.721Z,6.05
2023-05-22T16:14:26.418Z,6.70
2023-05-22T16:16:53.086Z,5.88
2023-05-22T16:19:20.038Z,5.57
2023-05-22T16:21:46.805Z,7.35
2023-05-22T16:24:13.631Z,6.80
2023-05-22T16:26:40.595Z,6.97
2023-05-22T16:29:11.337Z,7.68
2023-05-22T16:31:38.220Z,8.70
2023-05-22T16:34:05.854Z,6.57
2023-05-22T16:36:32.831Z,5.85
2023-05-22T16:38:59.517Z,7.30
2023-05-22T16:41:26.926Z,6.72
2023-05-22T16:43:54.013Z,5.55
2023-05-22T16:46:20.913Z,5.35
2023-05-22T16:48:48.722Z,7.00
2023-05-22T16:51:15.381Z,5.53
2023-05-22T16:53:42.235Z,6.95
2023-05-22T16:56:09.054Z,7.88
2023-05-22T16:58:35.982Z,8.02
2023-05-22T17:01:02.951Z,5.97
2023-05-22T17:03:29.763Z,14.25
2023-05-22T17:05:56.980Z,21.15
2023-05-22T17:08:23.792Z,10.93
2023-05-22T17:10:50.522Z,6.95
2023-05-22T17:13:20.859Z,6.60
2023-05-22T17:15:51.839Z,5.20
2023-05-22T17:18:19.925Z,4.00
2023-05-22T17:20:51.422Z,6.15
2023-05-22T17:23:18.414Z,4.55
2023-05-22T17:25:48.386Z,4.30
2023-05-22T17:28:15.409Z,4.65
2023-05-22T17:30:44.224Z,5.55
2023-05-22T17:33:11.306Z,6.32
2023-05-22T17:35:38.497Z,3.95
2023-05-22T17:38:07.340Z,3.92
2023-05-22T17:40:43.969Z,5.70
2023-05-22T17:43:11.390Z,4.55
2023-05-22T17:45:38.095Z,4.97
2023-05-22T17:48:06.229Z,4.57
2023-05-22T17:50:32.950Z,4.97
2023-05-22T17:52:59.691Z,7.15
2023-05-22T17:55:26.394Z,5.45
2023-05-22T17:57:53.436Z,7.03
2023-05-22T18:00:21.052Z,7.43
2023-05-22T18:02:47.828Z,5.10
2023-05-22T18:05:14.896Z,6.78
2023-05-22T18:07:41.709Z,5.22
2023-05-22T18:10:09.405Z,8.35
2023-05-22T18:12:38.139Z,5.50
2023-05-22T18:15:08.524Z,6.90
2023-05-22T18:17:35.424Z,5.50
2023-05-22T18:20:02.174Z,5.68
2023-05-22T18:22:28.929Z,4.15
2023-05-22T18:24:56.273Z,4.20
2023-05-22T18:27:23.163Z,6.65
2023-05-22T18:29:51.649Z,5.43
2023-05-22T18:32:18.434Z,6.53
2023-05-22T18:34:45.201Z,4.55
2023-05-22T18:37:11.922Z,5.30
2023-05-22T18:39:38.685Z,5.50
2023-05-22T18:42:05.881Z,5.72
2023-05-22T18:44:33.085Z,6.07
2023-05-22T18:46:59.848Z,3.70
2023-05-22T18:49:26.652Z,6.25
2023-05-22T18:51:53.372Z,5.40
2023-05-22T18:54:20.132Z,6.88
2023-05-22T18:56:47.562Z,6.22
2023-05-22T18:59:14.520Z,5.65
2023-05-22T19:01:41.294Z,4.38
2023-05-22T19:04:08.652Z,5.47
2023-05-22T19:06:36.112Z,5.45
2023-05-22T19:09:03.457Z,8.80
2023-05-22T19:11:33.500Z,5.45
2023-05-22T19:14:00.197Z,5.07
2023-05-22T19:16:27.162Z,6.13
2023-05-22T19:18:54.023Z,5.28
2023-05-22T19:21:20.759Z,6.18
2023-05-22T19:23:48.384Z,6.03
2023-05-22T19:26:15.085Z,6.43
2023-05-22T19:28:41.924Z,6.85
2023-05-22T19:31:08.846Z,7.63
2023-05-22T19:33:35.581Z,8.23
2023-05-22T19:36:02.597Z,6.18
2023-05-22T19:38:31.081Z,9.25
2023-05-22T19:40:57.874Z,6.75
2023-05-22T19:43:24.832Z,7.40
2023-05-22T19:45:51.512Z,7.78
2023-05-22T19:48:18.227Z,7.75
2023-05-22T19:50:45.339Z,9.43
2023-05-22T19:53:12.154Z,5.85
2023-05-22T19:55:38.804Z,6.45
2023-05-22T19:58:05.591Z,8.13
2023-05-22T20:00:33.398Z,6.43
2023-05-22T20:03:00.380Z,8.15
2023-05-22T20:05:27.471Z,5.30
2023-05-22T20:07:54.500Z,7.65
2023-05-22T20:10:21.741Z,10.88
2023-05-22T20:12:48.593Z,9.07
2023-05-22T20:15:15.497Z,9.90
2023-05-22T20:17:42.556Z,8.48
2023-05-22T20:20:09.848Z,8.13
2023-05-22T20:22:36.610Z,7.07
2023-05-22T20:27:32.100Z,9.73
2023-05-22T20:30:00.194Z,6.78
2023-05-22T20:32:27.301Z,11.20
2023-05-22T20:34:55.391Z,8.82
2023-05-22T20:37:22.364Z,7.00
2023-05-22T20:39:50.036Z,8.18
2023-05-22T20:42:17.611Z,8.77
2023-05-22T20:44:44.680Z,10.88
2023-05-22T20:47:11.886Z,11.38
2023-05-22T20:49:38.988Z,10.63
2023-05-22T20:52:05.830Z,10.45
2023-05-22T20:54:34.728Z,24.60
2023-05-22T20:57:02.146Z,19.50
2023-05-22T20:59:29.225Z,13.10
2023-05-22T21:01:57.135Z,14.07
2023-05-22T21:04:24.493Z,14.48
2023-05-22T21:06:51.399Z,16.15
2023-05-22T21:09:18.178Z,12.63
2023-05-22T21:11:45.144Z,10.38
2023-05-22T21:14:11.999Z,10.80
2023-05-22T21:16:40.191Z,10.25
2023-05-22T21:19:07.449Z,10.55
2023-05-22T21:21:36.201Z,10.27
2023-05-22T21:24:02.944Z,7.82
2023-05-22T21:26:29.647Z,11.85
2023-05-22T21:28:56.533Z,11.95
2023-05-22T21:31:23.343Z,8.77
2023-05-22T21:33:50.069Z,7.85
2023-05-22T21:36:16.760Z,6.65
2023-05-22T21:38:44.022Z,8.02
2023-05-22T21:41:11.818Z,7.97
2023-05-22T21:43:38.855Z,7.43
2023-05-22T21:46:05.744Z,7.30
2023-05-22T21:48:32.525Z,8.77
2023-05-22T21:50:59.235Z,10.07
2023-05-22T21:53:25.998Z,7.28
2023-05-22T21:55:52.724Z,7.75
2023-05-22T21:58:19.489Z,8.20
2023-05-22T22:00:46.306Z,7.35
2023-05-22T22:03:13.247Z,9.15
2023-05-22T22:05:40.478Z,9.10
2023-05-22T22:08:07.279Z,5.88
2023-05-22T22:10:34.073Z,7.82
2023-05-22T22:13:01.433Z,9.10
2023-05-22T22:15:28.215Z,6.07
2023-05-22T22:17:59.469Z,5.63
2023-05-22T22:20:42.466Z,6.35
2023-05-22T22:23:11.435Z,8.00
2023-05-22T22:25:39.256Z,7.75
2023-05-22T22:28:07.585Z,7.30
2023-05-22T22:30:35.345Z,6.70
2023-05-22T22:33:02.621Z,6.32
2023-05-22T22:35:29.494Z,6.95
2023-05-22T22:37:56.311Z,10.18
2023-05-22T22:40:24.336Z,6.80
2023-05-22T22:42:53.063Z,8.02
2023-05-22T22:45:19.927Z,6.05
2023-05-22T22:47:47.423Z,6.05
2023-05-22T22:50:14.274Z,7.60
2023-05-22T22:52:45.705Z,9.55
2023-05-22T22:55:13.453Z,6.00
2023-05-22T22:57:43.247Z,6.47
2023-05-22T23:00:13.450Z,6.30
2023-05-22T23:02:40.758Z,8.77
2023-05-22T23:05:08.142Z,6.20
2023-05-22T23:07:34.905Z,7.15
2023-05-22T23:10:01.909Z,5.75
2023-05-22T23:12:28.700Z,7.53
2023-05-22T23:14:55.622Z,7.93
2023-05-22T23:17:22.299Z,8.15
2023-05-22T23:19:49.060Z,7.57
2023-05-22T23:22:15.719Z,7.47
2023-05-22T23:24:42.345Z,7.03
2023-05-22T23:27:09.036Z,7.55
2023-05-22T23:29:35.749Z,7.78
2023-05-22T23:32:02.618Z,8.70
2023-05-22T23:34:29.477Z,6.03
2023-05-22T23:36:56.297Z,5.95
2023-05-22T23:39:23.162Z,5.82
2023-05-22T23:41:49.946Z,6.38
2023-05-22T23:44:16.728Z,6.45
2023-05-22T23:46:44.031Z,7.45
2023-05-22T23:49:10.959Z,7.35
2023-05-22T23:51:37.769Z,8.60
2023-05-22T23:54:04.582Z,6.57
2023-05-22T23:56:31.306Z,7.72
2023-05-22T23:58:58.042Z,5.82
